sensor_id;sensor_type;location;lat;lon;timestamp;P1;durP1;ratioP1;P2;durP2;ratioP2
75408;SDS011;63979;55.644;37.734;2023-02-28T00:02:55;4.38;;;1.67;;
75408;SDS011;63979;55.644;37.734;2023-02-28T00:07:56;2.67;;;1.48;;
75408;SDS011;63979;55.644;37.734;2023-02-28T00:13:02;3.83;;;2.75;;
75408;SDS011;63979;55.644;37.734;2023-02-28T00:18:05;3.55;;;2.58;;
75408;SDS011;63979;55.644;37.734;2023-02-28T00:23:05;2.50;;;1.40;;
75408;SDS011;63979;55.644;37.734;2023-02-28T00:28:06;3.72;;;1.75;;
75408;SDS011;63979;55.644;37.734;2023-02-28T00:33:07;5.90;;;2.22;;
75408;SDS011;63979;55.644;37.734;2023-02-28T00:38:08;2.00;;;1.85;;
75408;SDS011;63979;55.644;37.734;2023-02-28T00:43:19;2.47;;;1.60;;
75408;SDS011;63979;55.644;37.734;2023-02-28T00:48:20;2.33;;;2.00;;
75408;SDS011;63979;55.644;37.734;2023-02-28T00:53:21;3.03;;;1.58;;
75408;SDS011;63979;55.644;37.734;2023-02-28T00:58:22;2.58;;;2.10;;
75408;SDS011;63979;55.644;37.734;2023-02-28T01:03:23;4.18;;;3.15;;
75408;SDS011;63979;55.644;37.734;2023-02-28T01:08:24;3.40;;;3.05;;
75408;SDS011;63979;55.644;37.734;2023-02-28T01:13:26;2.88;;;1.90;;
75408;SDS011;63979;55.644;37.734;2023-02-28T01:18:27;4.95;;;3.38;;
75408;SDS011;63979;55.644;37.734;2023-02-28T01:23:28;2.25;;;1.95;;
75408;SDS011;63979;55.644;37.734;2023-02-28T01:28:29;4.65;;;1.92;;
75408;SDS011;63979;55.644;37.734;2023-02-28T01:33:30;1.88;;;1.55;;
75408;SDS011;63979;55.644;37.734;2023-02-28T01:38:32;5.50;;;2.47;;
75408;SDS011;63979;55.644;37.734;2023-02-28T01:53:49;6.15;;;2.60;;
75408;SDS011;63979;55.644;37.734;2023-02-28T01:58:55;2.92;;;2.33;;
75408;SDS011;63979;55.644;37.734;2023-02-28T02:03:57;4.93;;;2.78;;
75408;SDS011;63979;55.644;37.734;2023-02-28T02:09:02;2.38;;;1.27;;
75408;SDS011;63979;55.644;37.734;2023-02-28T02:19:52;3.08;;;2.38;;
75408;SDS011;63979;55.644;37.734;2023-02-28T02:35:46;6.00;;;1.85;;
75408;SDS011;63979;55.644;37.734;2023-02-28T02:41:09;5.82;;;2.50;;
75408;SDS011;63979;55.644;37.734;2023-02-28T02:46:20;2.63;;;1.40;;
75408;SDS011;63979;55.644;37.734;2023-02-28T02:51:24;2.08;;;1.65;;
75408;SDS011;63979;55.644;37.734;2023-02-28T02:56:28;2.05;;;1.60;;
75408;SDS011;63979;55.644;37.734;2023-02-28T03:01:32;3.13;;;2.35;;
75408;SDS011;63979;55.644;37.734;2023-02-28T03:06:35;1.65;;;1.13;;
75408;SDS011;63979;55.644;37.734;2023-02-28T03:11:36;3.85;;;1.27;;
75408;SDS011;63979;55.644;37.734;2023-02-28T03:21:58;3.78;;;1.95;;
75408;SDS011;63979;55.644;37.734;2023-02-28T03:32:42;2.53;;;1.50;;
75408;SDS011;63979;55.644;37.734;2023-02-28T03:38:00;2.33;;;1.27;;
75408;SDS011;63979;55.644;37.734;2023-02-28T03:43:10;1.98;;;1.10;;
75408;SDS011;63979;55.644;37.734;2023-02-28T03:48:20;2.15;;;1.25;;
75408;SDS011;63979;55.644;37.734;2023-02-28T04:03:43;5.18;;;1.27;;
75408;SDS011;63979;55.644;37.734;2023-02-28T04:08:44;1.80;;;1.60;;
75408;SDS011;63979;55.644;37.734;2023-02-28T04:13:45;1.38;;;1.17;;
75408;SDS011;63979;55.644;37.734;2023-02-28T04:18:46;0.95;;;0.80;;
75408;SDS011;63979;55.644;37.734;2023-02-28T04:23:47;2.97;;;1.77;;
75408;SDS011;63979;55.644;37.734;2023-02-28T04:28:48;2.75;;;2.17;;
75408;SDS011;63979;55.644;37.734;2023-02-28T04:33:48;2.00;;;1.65;;
75408;SDS011;63979;55.644;37.734;2023-02-28T04:38:49;1.88;;;1.63;;
75408;SDS011;63979;55.644;37.734;2023-02-28T04:43:51;2.13;;;1.98;;
75408;SDS011;63979;55.644;37.734;2023-02-28T04:48:53;1.33;;;0.77;;
75408;SDS011;63979;55.644;37.734;2023-02-28T04:53:55;2.13;;;1.52;;
75408;SDS011;63979;55.644;37.734;2023-02-28T04:58:56;2.60;;;1.95;;
75408;SDS011;63979;55.644;37.734;2023-02-28T05:03:57;1.35;;;0.80;;
75408;SDS011;63979;55.644;37.734;2023-02-28T05:09:00;2.00;;;1.27;;
75408;SDS011;63979;55.644;37.734;2023-02-28T05:14:02;3.53;;;1.58;;
75408;SDS011;63979;55.644;37.734;2023-02-28T05:19:04;3.25;;;1.38;;
75408;SDS011;63979;55.644;37.734;2023-02-28T05:24:11;8.48;;;2.30;;
75408;SDS011;63979;55.644;37.734;2023-02-28T05:29:12;2.47;;;1.35;;
75408;SDS011;63979;55.644;37.734;2023-02-28T05:34:13;2.95;;;1.65;;
75408;SDS011;63979;55.644;37.734;2023-02-28T05:39:15;4.13;;;1.60;;
75408;SDS011;63979;55.644;37.734;2023-02-28T05:44:16;4.53;;;2.33;;
75408;SDS011;63979;55.644;37.734;2023-02-28T05:49:17;4.20;;;2.55;;
75408;SDS011;63979;55.644;37.734;2023-02-28T05:54:18;3.20;;;2.30;;
75408;SDS011;63979;55.644;37.734;2023-02-28T05:59:19;3.22;;;1.60;;
75408;SDS011;63979;55.644;37.734;2023-02-28T06:04:20;2.00;;;1.55;;
75408;SDS011;63979;55.644;37.734;2023-02-28T06:09:21;5.03;;;2.45;;
75408;SDS011;63979;55.644;37.734;2023-02-28T06:14:22;3.33;;;2.25;;
75408;SDS011;63979;55.644;37.734;2023-02-28T06:19:23;4.03;;;2.42;;
75408;SDS011;63979;55.644;37.734;2023-02-28T06:24:26;2.83;;;1.35;;
75408;SDS011;63979;55.644;37.734;2023-02-28T06:29:28;3.15;;;2.05;;
75408;SDS011;63979;55.644;37.734;2023-02-28T06:34:29;3.67;;;2.03;;
75408;SDS011;63979;55.644;37.734;2023-02-28T06:39:31;3.22;;;2.03;;
75408;SDS011;63979;55.644;37.734;2023-02-28T06:44:32;1.40;;;1.23;;
75408;SDS011;63979;55.644;37.734;2023-02-28T06:49:35;2.67;;;1.80;;
75408;SDS011;63979;55.644;37.734;2023-02-28T06:54:36;2.05;;;1.50;;
75408;SDS011;63979;55.644;37.734;2023-02-28T06:59:37;7.15;;;2.00;;
75408;SDS011;63979;55.644;37.734;2023-02-28T07:04:38;3.70;;;2.08;;
75408;SDS011;63979;55.644;37.734;2023-02-28T07:09:40;3.58;;;1.48;;
75408;SDS011;63979;55.644;37.734;2023-02-28T07:14:41;1.42;;;1.05;;
75408;SDS011;63979;55.644;37.734;2023-02-28T07:19:42;1.75;;;1.33;;
75408;SDS011;63979;55.644;37.734;2023-02-28T07:24:43;1.95;;;1.30;;
75408;SDS011;63979;55.644;37.734;2023-02-28T07:29:44;5.03;;;1.70;;
75408;SDS011;63979;55.644;37.734;2023-02-28T07:34:45;3.22;;;1.25;;
75408;SDS011;63979;55.644;37.734;2023-02-28T07:39:46;2.30;;;1.23;;
75408;SDS011;63979;55.644;37.734;2023-02-28T07:44:47;2.30;;;1.27;;
75408;SDS011;63979;55.644;37.734;2023-02-28T07:49:48;2.63;;;1.48;;
75408;SDS011;63979;55.644;37.734;2023-02-28T07:54:49;1.85;;;1.23;;
75408;SDS011;63979;55.644;37.734;2023-02-28T07:59:50;1.92;;;1.30;;
75408;SDS011;63979;55.644;37.734;2023-02-28T08:04:51;2.50;;;1.10;;
75408;SDS011;63979;55.644;37.734;2023-02-28T08:09:52;2.22;;;1.50;;
75408;SDS011;63979;55.644;37.734;2023-02-28T08:14:53;1.55;;;1.15;;
75408;SDS011;63979;55.644;37.734;2023-02-28T08:19:53;1.60;;;1.10;;
75408;SDS011;63979;55.644;37.734;2023-02-28T08:24:55;5.75;;;1.23;;
75408;SDS011;63979;55.644;37.734;2023-02-28T08:29:56;4.68;;;1.33;;
75408;SDS011;63979;55.644;37.734;2023-02-28T08:34:57;3.72;;;1.55;;
75408;SDS011;63979;55.644;37.734;2023-02-28T08:39:58;2.45;;;1.50;;
75408;SDS011;63979;55.644;37.734;2023-02-28T08:44:59;1.48;;;1.02;;
75408;SDS011;63979;55.644;37.734;2023-02-28T08:50:00;3.60;;;1.40;;
75408;SDS011;63979;55.644;37.734;2023-02-28T08:55:00;1.98;;;1.30;;
75408;SDS011;63979;55.644;37.734;2023-02-28T09:00:02;1.52;;;1.17;;
75408;SDS011;63979;55.644;37.734;2023-02-28T09:10:06;4.95;;;2.25;;
75408;SDS011;63979;55.644;37.734;2023-02-28T09:15:07;1.77;;;1.17;;
75408;SDS011;63979;55.644;37.734;2023-02-28T09:20:09;2.25;;;1.58;;
75408;SDS011;63979;55.644;37.734;2023-02-28T09:25:10;1.90;;;1.15;;
75408;SDS011;63979;55.644;37.734;2023-02-28T09:30:12;2.35;;;1.70;;
75408;SDS011;63979;55.644;37.734;2023-02-28T09:35:13;3.22;;;1.20;;
75408;SDS011;63979;55.644;37.734;2023-02-28T09:40:17;3.20;;;1.30;;
75408;SDS011;63979;55.644;37.734;2023-02-28T09:50:38;2.85;;;1.65;;
75408;SDS011;63979;55.644;37.734;2023-02-28T09:55:43;2.40;;;0.93;;
75408;SDS011;63979;55.644;37.734;2023-02-28T10:01:00;5.13;;;2.65;;
75408;SDS011;63979;55.644;37.734;2023-02-28T10:11:20;3.05;;;1.27;;
75408;SDS011;63979;55.644;37.734;2023-02-28T10:26:32;3.20;;;1.83;;
75408;SDS011;63979;55.644;37.734;2023-02-28T10:31:33;6.90;;;3.38;;
75408;SDS011;63979;55.644;37.734;2023-02-28T10:36:34;3.60;;;1.60;;
75408;SDS011;63979;55.644;37.734;2023-02-28T10:41:35;2.20;;;1.20;;
75408;SDS011;63979;55.644;37.734;2023-02-28T10:46:43;1.92;;;1.27;;
75408;SDS011;63979;55.644;37.734;2023-02-28T10:51:44;1.42;;;1.20;;
75408;SDS011;63979;55.644;37.734;2023-02-28T10:56:46;2.30;;;1.27;;
75408;SDS011;63979;55.644;37.734;2023-02-28T11:07:50;1.00;;;0.90;;
75408;SDS011;63979;55.644;37.734;2023-02-28T11:12:55;1.70;;;1.10;;
75408;SDS011;63979;55.644;37.734;2023-02-28T11:18:00;4.78;;;1.95;;
75408;SDS011;63979;55.644;37.734;2023-02-28T11:23:19;3.70;;;2.33;;
75408;SDS011;63979;55.644;37.734;2023-02-28T11:28:34;1.50;;;1.27;;
75408;SDS011;63979;55.644;37.734;2023-02-28T11:49:41;3.70;;;1.88;;
75408;SDS011;63979;55.644;37.734;2023-02-28T12:05:10;3.45;;;1.50;;
75408;SDS011;63979;55.644;37.734;2023-02-28T12:15:36;6.40;;;2.17;;
75408;SDS011;63979;55.644;37.734;2023-02-28T12:31:36;1.17;;;0.98;;
75408;SDS011;63979;55.644;37.734;2023-02-28T12:36:41;2.65;;;1.60;;
75408;SDS011;63979;55.644;37.734;2023-02-28T12:47:04;4.50;;;1.55;;
75408;SDS011;63979;55.644;37.734;2023-02-28T12:52:10;4.43;;;1.88;;
75408;SDS011;63979;55.644;37.734;2023-02-28T13:13:28;3.55;;;1.50;;
75408;SDS011;63979;55.644;37.734;2023-02-28T13:28:59;5.45;;;2.05;;
75408;SDS011;63979;55.644;37.734;2023-02-28T13:34:12;1.90;;;1.33;;
75408;SDS011;63979;55.644;37.734;2023-02-28T13:44:48;3.65;;;2.03;;
75408;SDS011;63979;55.644;37.734;2023-02-28T13:55:34;3.38;;;1.35;;
75408;SDS011;63979;55.644;37.734;2023-02-28T14:01:08;3.60;;;1.80;;
75408;SDS011;63979;55.644;37.734;2023-02-28T14:11:32;2.53;;;1.63;;
75408;SDS011;63979;55.644;37.734;2023-02-28T14:16:41;1.92;;;1.48;;
75408;SDS011;63979;55.644;37.734;2023-02-28T14:21:50;1.63;;;0.98;;
75408;SDS011;63979;55.644;37.734;2023-02-28T14:32:58;3.78;;;2.13;;
75408;SDS011;63979;55.644;37.734;2023-02-28T14:38:20;4.18;;;2.00;;
75408;SDS011;63979;55.644;37.734;2023-02-28T14:43:26;9.18;;;3.08;;
75408;SDS011;63979;55.644;37.734;2023-02-28T14:48:29;2.65;;;1.17;;
75408;SDS011;63979;55.644;37.734;2023-02-28T14:53:30;2.85;;;1.40;;
75408;SDS011;63979;55.644;37.734;2023-02-28T14:58:37;2.28;;;0.98;;
75408;SDS011;63979;55.644;37.734;2023-02-28T15:03:39;3.22;;;1.77;;
75408;SDS011;63979;55.644;37.734;2023-02-28T15:08:42;1.27;;;1.17;;
75408;SDS011;63979;55.644;37.734;2023-02-28T15:13:46;3.83;;;1.73;;
75408;SDS011;63979;55.644;37.734;2023-02-28T15:18:56;1.88;;;1.42;;
75408;SDS011;63979;55.644;37.734;2023-02-28T15:29:13;2.05;;;1.30;;
75408;SDS011;63979;55.644;37.734;2023-02-28T15:34:21;1.25;;;0.82;;
75408;SDS011;63979;55.644;37.734;2023-02-28T15:39:42;1.38;;;1.00;;
75408;SDS011;63979;55.644;37.734;2023-02-28T15:44:45;2.70;;;1.75;;
75408;SDS011;63979;55.644;37.734;2023-02-28T15:49:50;1.98;;;1.35;;
75408;SDS011;63979;55.644;37.734;2023-02-28T15:54:52;4.60;;;1.50;;
75408;SDS011;63979;55.644;37.734;2023-02-28T15:59:54;1.30;;;1.20;;
75408;SDS011;63979;55.644;37.734;2023-02-28T16:05:20;3.47;;;1.90;;
75408;SDS011;63979;55.644;37.734;2023-02-28T16:10:23;3.05;;;1.88;;
75408;SDS011;63979;55.644;37.734;2023-02-28T16:15:27;4.60;;;2.83;;
75408;SDS011;63979;55.644;37.734;2023-02-28T16:20:31;1.92;;;1.45;;
75408;SDS011;63979;55.644;37.734;2023-02-28T16:25:33;2.67;;;1.73;;
75408;SDS011;63979;55.644;37.734;2023-02-28T16:30:39;3.05;;;1.88;;
75408;SDS011;63979;55.644;37.734;2023-02-28T16:35:41;3.90;;;1.60;;
75408;SDS011;63979;55.644;37.734;2023-02-28T16:40:42;2.25;;;1.20;;
75408;SDS011;63979;55.644;37.734;2023-02-28T16:45:43;2.40;;;1.58;;
75408;SDS011;63979;55.644;37.734;2023-02-28T16:50:44;1.63;;;1.27;;
75408;SDS011;63979;55.644;37.734;2023-02-28T16:55:45;2.45;;;1.67;;
75408;SDS011;63979;55.644;37.734;2023-02-28T17:00:47;2.95;;;1.17;;
75408;SDS011;63979;55.644;37.734;2023-02-28T17:05:49;3.55;;;1.92;;
75408;SDS011;63979;55.644;37.734;2023-02-28T17:10:50;3.03;;;1.52;;
75408;SDS011;63979;55.644;37.734;2023-02-28T17:15:51;2.75;;;1.40;;
75408;SDS011;63979;55.644;37.734;2023-02-28T17:20:52;1.15;;;0.85;;
75408;SDS011;63979;55.644;37.734;2023-02-28T17:25:53;3.00;;;2.08;;
75408;SDS011;63979;55.644;37.734;2023-02-28T17:30:55;3.35;;;2.25;;
75408;SDS011;63979;55.644;37.734;2023-02-28T17:35:56;1.48;;;1.25;;
75408;SDS011;63979;55.644;37.734;2023-02-28T17:40:57;2.45;;;1.50;;
75408;SDS011;63979;55.644;37.734;2023-02-28T17:45:59;2.85;;;1.23;;
75408;SDS011;63979;55.644;37.734;2023-02-28T17:51:01;1.92;;;0.93;;
75408;SDS011;63979;55.644;37.734;2023-02-28T17:56:02;1.17;;;1.08;;
75408;SDS011;63979;55.644;37.734;2023-02-28T18:01:03;1.70;;;1.20;;
75408;SDS011;63979;55.644;37.734;2023-02-28T18:06:05;2.35;;;1.60;;
75408;SDS011;63979;55.644;37.734;2023-02-28T18:11:06;2.15;;;1.67;;
75408;SDS011;63979;55.644;37.734;2023-02-28T18:16:17;3.53;;;1.33;;
75408;SDS011;63979;55.644;37.734;2023-02-28T18:21:19;1.25;;;1.13;;
75408;SDS011;63979;55.644;37.734;2023-02-28T18:26:20;4.15;;;1.08;;
75408;SDS011;63979;55.644;37.734;2023-02-28T18:31:20;1.05;;;0.47;;
75408;SDS011;63979;55.644;37.734;2023-02-28T18:36:22;3.72;;;0.50;;
75408;SDS011;63979;55.644;37.734;2023-02-28T18:41:22;0.65;;;0.38;;
75408;SDS011;63979;55.644;37.734;2023-02-28T18:46:24;0.55;;;0.30;;
75408;SDS011;63979;55.644;37.734;2023-02-28T18:51:25;1.27;;;0.60;;
75408;SDS011;63979;55.644;37.734;2023-02-28T18:56:27;0.93;;;0.43;;
75408;SDS011;63979;55.644;37.734;2023-02-28T19:01:28;1.80;;;1.05;;
75408;SDS011;63979;55.644;37.734;2023-02-28T19:06:32;0.30;;;0.25;;
75408;SDS011;63979;55.644;37.734;2023-02-28T19:11:34;1.23;;;0.80;;
75408;SDS011;63979;55.644;37.734;2023-02-28T19:16:35;0.95;;;0.38;;
75408;SDS011;63979;55.644;37.734;2023-02-28T19:21:36;3.03;;;0.98;;
75408;SDS011;63979;55.644;37.734;2023-02-28T19:26:37;0.88;;;0.32;;
75408;SDS011;63979;55.644;37.734;2023-02-28T19:31:38;2.55;;;0.77;;
75408;SDS011;63979;55.644;37.734;2023-02-28T19:36:39;1.02;;;0.75;;
75408;SDS011;63979;55.644;37.734;2023-02-28T19:41:40;4.47;;;1.48;;
75408;SDS011;63979;55.644;37.734;2023-02-28T19:46:41;1.00;;;0.55;;
75408;SDS011;63979;55.644;37.734;2023-02-28T19:51:43;3.08;;;1.15;;
75408;SDS011;63979;55.644;37.734;2023-02-28T19:56:44;1.10;;;0.70;;
75408;SDS011;63979;55.644;37.734;2023-02-28T20:01:45;1.38;;;0.47;;
75408;SDS011;63979;55.644;37.734;2023-02-28T20:06:46;4.22;;;0.60;;
75408;SDS011;63979;55.644;37.734;2023-02-28T20:11:47;2.17;;;0.50;;
75408;SDS011;63979;55.644;37.734;2023-02-28T20:16:50;0.88;;;0.70;;
75408;SDS011;63979;55.644;37.734;2023-02-28T20:21:51;0.63;;;0.60;;
75408;SDS011;63979;55.644;37.734;2023-02-28T20:26:52;2.33;;;0.47;;
75408;SDS011;63979;55.644;37.734;2023-02-28T20:31:55;1.70;;;0.45;;
75408;SDS011;63979;55.644;37.734;2023-02-28T20:37:02;0.60;;;0.50;;
75408;SDS011;63979;55.644;37.734;2023-02-28T20:42:03;1.98;;;0.57;;
75408;SDS011;63979;55.644;37.734;2023-02-28T20:47:04;1.00;;;0.22;;
75408;SDS011;63979;55.644;37.734;2023-02-28T20:52:05;0.10;;;0.10;;
75408;SDS011;63979;55.644;37.734;2023-02-28T20:57:06;0.30;;;0.30;;
75408;SDS011;63979;55.644;37.734;2023-02-28T21:02:08;4.68;;;0.50;;
75408;SDS011;63979;55.644;37.734;2023-02-28T21:07:14;0.35;;;0.35;;
75408;SDS011;63979;55.644;37.734;2023-02-28T21:12:15;0.30;;;0.22;;
75408;SDS011;63979;55.644;37.734;2023-02-28T21:17:18;0.40;;;0.40;;
75408;SDS011;63979;55.644;37.734;2023-02-28T21:22:19;0.47;;;0.30;;
75408;SDS011;63979;55.644;37.734;2023-02-28T21:27:19;1.08;;;0.35;;
75408;SDS011;63979;55.644;37.734;2023-02-28T21:32:20;1.25;;;0.50;;
75408;SDS011;63979;55.644;37.734;2023-02-28T21:37:21;0.00;;;0.00;;
75408;SDS011;63979;55.644;37.734;2023-02-28T21:42:23;0.08;;;0.08;;
75408;SDS011;63979;55.644;37.734;2023-02-28T21:47:24;1.30;;;0.25;;
75408;SDS011;63979;55.644;37.734;2023-02-28T21:52:25;0.73;;;0.28;;
75408;SDS011;63979;55.644;37.734;2023-02-28T21:57:26;0.80;;;0.15;;
75408;SDS011;63979;55.644;37.734;2023-02-28T22:02:27;1.27;;;0.75;;
75408;SDS011;63979;55.644;37.734;2023-02-28T22:07:28;1.10;;;0.20;;
75408;SDS011;63979;55.644;37.734;2023-02-28T22:12:29;0.00;;;0.00;;
75408;SDS011;63979;55.644;37.734;2023-02-28T22:17:31;2.83;;;0.65;;
75408;SDS011;63979;55.644;37.734;2023-02-28T22:22:33;0.30;;;0.15;;
75408;SDS011;63979;55.644;37.734;2023-02-28T22:27:34;0.47;;;0.30;;
75408;SDS011;63979;55.644;37.734;2023-02-28T22:32:35;0.15;;;0.15;;
75408;SDS011;63979;55.644;37.734;2023-02-28T22:37:37;0.30;;;0.22;;
75408;SDS011;63979;55.644;37.734;2023-02-28T22:42:38;0.30;;;0.30;;
75408;SDS011;63979;55.644;37.734;2023-02-28T22:47:39;4.28;;;0.75;;
75408;SDS011;63979;55.644;37.734;2023-02-28T22:52:40;2.53;;;0.70;;
75408;SDS011;63979;55.644;37.734;2023-02-28T22:57:41;1.33;;;0.28;;
75408;SDS011;63979;55.644;37.734;2023-02-28T23:02:43;0.30;;;0.10;;
75408;SDS011;63979;55.644;37.734;2023-02-28T23:07:45;0.10;;;0.10;;
75408;SDS011;63979;55.644;37.734;2023-02-28T23:12:46;0.82;;;0.25;;
75408;SDS011;63979;55.644;37.734;2023-02-28T23:17:53;0.10;;;0.10;;
75408;SDS011;63979;55.644;37.734;2023-02-28T23:22:54;0.22;;;0.10;;
75408;SDS011;63979;55.644;37.734;2023-02-28T23:27:55;0.30;;;0.10;;
75408;SDS011;63979;55.644;37.734;2023-02-28T23:32:55;0.22;;;0.22;;
75408;SDS011;63979;55.644;37.734;2023-02-28T23:37:56;0.00;;;0.00;;
75408;SDS011;63979;55.644;37.734;2023-02-28T23:42:58;0.00;;;0.00;;
75408;SDS011;63979;55.644;37.734;2023-02-28T23:47:59;0.17;;;0.17;;
75408;SDS011;63979;55.644;37.734;2023-02-28T23:53:00;0.10;;;0.10;;
75408;SDS011;63979;55.644;37.734;2023-02-28T23:58:01;0.73;;;0.20;;
